AirNav   Duncan Aviation - Near you to keep you flying
 
 1087 users online  

1MO6 Double S Ranch Airport
Grandin, Missouri, USA

GOING TO GRANDIN?


FAA INFORMATION EFFECTIVE 03 NOVEMBER 2022

Location

FAA Identifier: 1MO6
Lat/Long: 36-50-10.1940N 090-43-20.4320W
36-50.169900N 090-43.340533W
36.8361650,-90.7223422
(estimated)
Elevation: 737 ft. / 225 m (estimated)
Variation: 03E (1985)
From city: 4 miles E of GRANDIN, MO
Time zone: UTC -6 (UTC -5 during Daylight Saving Time)
Zip code: 63943

Airport Operations

Airport use: Private use. Permission required prior to landing
Activation date: 09/1962
Control tower: no
ARTCC: MEMPHIS CENTER
FSS: SAINT LOUIS FLIGHT SERVICE STATION
Attendance: UNATNDD
Wind indicator: yes
Segmented circle: no

Airport Communications

WX AWOS-3PT at PYN (17 nm N): 118.475 (573-223-2796)
WX ASOS at POF (19 nm E): 124.225 (573-776-1686)

Nearby radio navigation aids

NDB name  Hdg/Dist  Freq  Var  ID
LAWRENCE COUNTY013/39.022701ETNZ - -. --..

Airport Services

Airframe service: NONE
Powerplant service: NONE

Runway Information

Runway 17/35

Dimensions: 5000 x 150 ft. / 1524 x 46 m
Surface: turf
RUNWAY 17  RUNWAY 35
Traffic pattern: leftleft
Obstructions: nonebldg

Airport Ownership and Management from official FAA records

Ownership: Privately-owned
Owner: STEVE STIPANORICH
4400 RIVERBANKS RD
GRANTS PASS, OR 97527
Phone 503-479-3574
Manager: DANE SANDERS
RTE 1 BOX 49
GRANDIN, MO 63943
Phone 314-593-4867

Airport Operational Statistics

Aircraft based on the field: 1
Single engine airplanes: 1
    

Additional Remarks

FOR CD CTC MEMPHIS ARTCC AT 901-368-8453/8449.

Instrument Procedures

There are no published instrument procedures at 1MO6.

Some nearby airports with instrument procedures:

KPOF - Poplar Bluff Regional Business Airport (19 nm E)
4M9 - Corning Municipal Airport (26 nm S)
M70 - Pocahontas Municipal Airport (37 nm S)
KDXE - Dexter Municipal Airport (38 nm E)
KMAW - Malden Regional Airport (38 nm E)
 
Loc | Ops | Rwys | IFR | FBO | Links
Com | Nav | Svcs | Stats | Notes
Area around 1MO6 (Double S Ranch Airport)
 
Road maps at: MapQuest Bing Google
 
Aerial photo
No photo
 
Sectional chart

 
Airport distance calculator
Flying to Double S Ranch Airport? Find the distance to fly.

From to 1MO6

Sunrise and sunset
Times for 29-Nov-2022
 Local
(UTC-6)
 Zulu
(UTC)
Morning civil twilight06:2812:28
Sunrise06:5612:56
Sunset16:4622:46
Evening civil twilight17:1523:15

Current date and time
Zulu (UTC)  30-Nov-2022 01:12:15
Local (UTC-6)  29-Nov-2022 19:12:15
 
METAR
KPOF 
20nm E 
300053Z AUTO 22010KT 9SM OVC012 17/16 A2964 RMK AO2 SLP037 T01720156
K4M9 
26nm S 
300055Z AUTO 21011KT 4SM BR BKN007 OVC011 17/17 A2964 RMK AO2 PWINO
KMAW 
38nm E 
300055Z AUTO 20010KT 3SM BR OVC003 17/17 A2966 RMK AO1
TAF
NOTAMs
Click for the latest NOTAMs
NOTAMs are issued by the DoD/FAA and will open in a separate window not controlled by AirNav.

 

 
 

Would you like to see your business listed on this page?

 If your business provides an interesting product or service to pilots, flight crews, aircraft, or users of the Double S Ranch Airport, you should consider listing it here.  To start the listing process, click on the button below
 
Add a business
 

Other Pages about Double S Ranch Airport

Update a link
 
Copyright © AirNav, LLC. All rights reserved. Privacy Policy  Contact